createdAt,value
2019-05-17T00:01:39.205Z,64.90
2019-05-17T00:04:07.208Z,65.00
2019-05-17T00:06:33.518Z,65.30
2019-05-17T00:08:59.725Z,65.70
2019-05-17T00:11:27.346Z,65.80
2019-05-17T00:13:53.796Z,66.10
2019-05-17T00:16:20.019Z,66.00
2019-05-17T00:18:46.426Z,66.30
2019-05-17T00:21:12.785Z,66.70
2019-05-17T00:23:38.997Z,67.00
2019-05-17T00:26:07.149Z,67.40
2019-05-17T00:28:33.738Z,67.00
2019-05-17T00:30:59.957Z,67.20
2019-05-17T00:33:27.232Z,67.90
2019-05-17T00:35:53.625Z,68.40
2019-05-17T00:38:19.837Z,68.90
2019-05-17T00:40:47.051Z,69.30
2019-05-17T00:43:13.657Z,69.50
2019-05-17T00:45:39.883Z,69.80
2019-05-17T00:48:06.662Z,69.80
2019-05-17T00:50:33.217Z,69.80
2019-05-17T00:52:59.439Z,69.50
2019-05-17T00:55:26.842Z,70.10
2019-05-17T00:57:53.261Z,70.30
2019-05-17T01:00:19.865Z,70.00
2019-05-17T01:02:46.744Z,69.90
2019-05-17T01:05:14.001Z,70.10
2019-05-17T01:07:40.218Z,70.50
2019-05-17T01:10:07.538Z,70.90
2019-05-17T01:12:33.793Z,71.20
2019-05-17T01:15:00.081Z,71.40
2019-05-17T01:17:27.126Z,71.30
2019-05-17T01:19:53.544Z,71.80
2019-05-17T01:22:19.764Z,72.10
2019-05-17T01:24:46.326Z,72.70
2019-05-17T01:27:12.805Z,72.30
2019-05-17T01:29:39.926Z,72.70
2019-05-17T01:32:06.815Z,72.70
2019-05-17T01:34:33.261Z,73.00
2019-05-17T01:36:59.470Z,73.00
2019-05-17T01:39:26.841Z,73.20
2019-05-17T01:41:53.221Z,73.40
2019-05-17T01:44:19.433Z,73.40
2019-05-17T01:46:46.589Z,73.10
2019-05-17T01:49:12.947Z,73.20
2019-05-17T01:51:39.261Z,73.10
2019-05-17T01:54:06.864Z,73.10
2019-05-17T01:56:33.322Z,73.50
2019-05-17T01:58:59.621Z,73.80
2019-05-17T02:01:27.579Z,73.90
2019-05-17T02:03:53.989Z,73.70
2019-05-17T02:06:20.202Z,73.70
2019-05-17T02:08:47.485Z,74.30
2019-05-17T02:11:14.046Z,74.00
2019-05-17T02:13:40.256Z,74.40
2019-05-17T02:16:07.171Z,74.40
2019-05-17T02:18:37.033Z,74.50
2019-05-17T02:21:02.617Z,75.00
2019-05-17T02:23:28.833Z,75.20
2019-05-17T02:25:57.146Z,75.50
2019-05-17T02:28:23.389Z,75.30
2019-05-17T02:30:52.889Z,75.40
2019-05-17T02:33:17.953Z,75.00
2019-05-17T02:35:44.161Z,75.10
2019-05-17T02:38:13.053Z,75.00
2019-05-17T02:40:38.514Z,75.10
2019-05-17T02:43:04.848Z,75.00
2019-05-17T02:45:32.854Z,75.20
2019-05-17T02:47:59.238Z,75.00
2019-05-17T02:50:25.618Z,75.30
2019-05-17T02:52:52.769Z,75.20
2019-05-17T02:55:19.483Z,75.20
2019-05-17T02:57:45.803Z,74.50
2019-05-17T03:00:13.574Z,73.40
2019-05-17T03:02:42.679Z,74.30
2019-05-17T03:05:08.873Z,74.30
2019-05-17T03:07:35.178Z,74.60
2019-05-17T03:10:17.014Z,74.70
2019-05-17T03:12:32.636Z,75.00
2019-05-17T03:14:57.941Z,75.30
2019-05-17T03:17:24.170Z,75.60
2019-05-17T03:19:53.030Z,75.90
2019-05-17T03:22:18.494Z,76.00
2019-05-17T03:24:44.742Z,76.40
2019-05-17T03:27:13.473Z,76.70
2019-05-17T03:29:42.347Z,76.70
2019-05-17T03:32:09.583Z,76.60
2019-05-17T03:34:37.440Z,76.70
2019-05-17T03:37:06.194Z,76.90
2019-05-17T03:39:33.351Z,77.10
2019-05-17T03:42:02.413Z,76.60
2019-05-17T03:44:27.878Z,76.70
2019-05-17T03:46:54.105Z,76.30
2019-05-17T03:49:22.375Z,75.50
2019-05-17T03:51:48.405Z,74.90
2019-05-17T03:54:14.732Z,74.20
2019-05-17T03:56:42.750Z,74.80
2019-05-17T03:59:09.113Z,75.10
2019-05-17T04:01:35.352Z,75.50
2019-05-17T04:04:02.920Z,75.10
2019-05-17T04:06:32.856Z,75.00
2019-05-17T04:08:58.716Z,74.40
2019-05-17T04:11:31.562Z,71.70
2019-05-17T04:13:54.024Z,69.60
2019-05-17T04:16:23.597Z,66.70
2019-05-17T04:18:48.576Z,64.20
2019-05-17T04:21:14.795Z,62.20
2019-05-17T04:23:42.929Z,60.10
2019-05-17T04:26:09.443Z,58.70
2019-05-17T04:28:35.664Z,58.30
2019-05-17T04:31:03.110Z,57.50
2019-05-17T04:33:29.630Z,57.60
2019-05-17T04:35:55.858Z,57.70
2019-05-17T04:38:23.591Z,57.40
2019-05-17T04:40:53.450Z,56.70
2019-05-17T04:43:18.336Z,56.50
2019-05-17T04:45:44.678Z,56.50
2019-05-17T04:48:13.254Z,56.00
2019-05-17T04:50:39.015Z,55.70
2019-05-17T04:53:05.338Z,55.80
2019-05-17T04:55:34.157Z,56.10
2019-05-17T04:58:03.472Z,56.30
2019-05-17T05:00:27.855Z,56.40
2019-05-17T05:02:54.062Z,56.20
2019-05-17T05:05:22.809Z,56.30
2019-05-17T05:07:48.631Z,56.20
2019-05-17T05:10:15.138Z,55.70
2019-05-17T05:12:43.430Z,54.70
2019-05-17T05:15:12.205Z,54.20
2019-05-17T05:17:38.625Z,54.10
2019-05-17T05:20:05.744Z,53.60
2019-05-17T05:22:33.020Z,52.90
2019-05-17T05:25:01.962Z,52.40
2019-05-17T05:27:27.727Z,52.30
2019-05-17T05:29:54.073Z,51.60
2019-05-17T05:32:22.065Z,51.90
2019-05-17T05:34:48.442Z,52.30
2019-05-17T05:37:14.677Z,52.50
2019-05-17T05:39:41.992Z,52.40
2019-05-17T05:42:11.510Z,53.00
2019-05-17T05:44:36.445Z,53.00
2019-05-17T05:47:02.761Z,53.80
2019-05-17T05:49:32.095Z,54.30
2019-05-17T05:51:58.201Z,54.70
2019-05-17T05:54:24.417Z,55.00
2019-05-17T05:56:52.471Z,55.30
2019-05-17T05:59:18.949Z,55.80
2019-05-17T06:01:45.261Z,55.80
2019-05-17T06:04:11.860Z,56.30
2019-05-17T06:06:38.213Z,55.90
2019-05-17T06:09:06.890Z,54.90
2019-05-17T06:11:33.109Z,53.90
2019-05-17T06:14:01.460Z,53.30
2019-05-17T06:16:27.474Z,52.70
2019-05-17T06:18:53.714Z,52.50
2019-05-17T06:21:22.458Z,52.10
2019-05-17T06:23:48.053Z,50.40
2019-05-17T06:26:14.277Z,51.00
2019-05-17T06:28:42.502Z,51.70
2019-05-17T06:31:09.540Z,50.80
2019-05-17T06:33:37.005Z,50.20
2019-05-17T06:36:03.343Z,50.50
2019-05-17T06:38:29.561Z,51.10
2019-05-17T06:40:55.779Z,50.50
2019-05-17T06:43:22.032Z,50.10
2019-05-17T06:45:48.353Z,49.70
2019-05-17T06:48:14.598Z,49.80
2019-05-17T06:50:43.042Z,50.10
2019-05-17T06:53:09.053Z,49.90
2019-05-17T06:55:35.270Z,50.20
2019-05-17T06:58:01.820Z,50.70
2019-05-17T07:00:29.915Z,51.50
2019-05-17T07:02:56.331Z,51.50
2019-05-17T07:05:24.573Z,51.40
2019-05-17T07:07:50.785Z,51.30
2019-05-17T07:10:19.484Z,51.50
2019-05-17T07:12:55.945Z,52.10
2019-05-17T07:15:14.465Z,51.60
2019-05-17T07:17:40.696Z,50.90
2019-05-17T07:20:10.218Z,50.90
2019-05-17T07:22:35.633Z,51.00
2019-05-17T07:25:03.349Z,50.70
2019-05-17T07:27:38.714Z,51.00
2019-05-17T07:29:59.213Z,50.90
2019-05-17T07:32:25.668Z,50.50
2019-05-17T07:34:52.853Z,50.20
2019-05-17T07:37:20.176Z,49.90
2019-05-17T07:39:57.905Z,49.80
2019-05-17T07:42:15.644Z,48.30
2019-05-17T07:44:44.055Z,48.10
2019-05-17T07:47:09.973Z,48.40
2019-05-17T07:49:36.267Z,46.70
2019-05-17T07:52:02.685Z,46.40
2019-05-17T07:54:30.309Z,44.90
2019-05-17T07:56:56.758Z,44.60
2019-05-17T07:59:23.041Z,45.70
2019-05-17T08:01:50.383Z,45.50
2019-05-17T08:04:16.818Z,45.90
2019-05-17T08:06:43.024Z,45.70
2019-05-17T08:09:13.980Z,45.20
2019-05-17T08:11:39.526Z,46.60
2019-05-17T08:14:05.429Z,45.90
2019-05-17T08:16:31.757Z,46.80
2019-05-17T08:19:00.154Z,45.60
2019-05-17T08:21:25.985Z,45.10
2019-05-17T08:23:52.193Z,45.10
2019-05-17T08:26:20.053Z,44.80
2019-05-17T08:28:46.357Z,44.70
2019-05-17T08:31:12.642Z,44.90
2019-05-17T08:33:40.678Z,43.80
2019-05-17T08:36:09.253Z,43.80
2019-05-17T08:38:35.382Z,43.60
2019-05-17T08:41:01.709Z,43.30
2019-05-17T08:43:41.847Z,42.50
2019-05-17T08:45:58.438Z,42.80
2019-05-17T08:48:24.037Z,43.40
2019-05-17T08:50:50.269Z,43.20
2019-05-17T08:53:16.488Z,42.20
2019-05-17T08:55:42.717Z,41.50
2019-05-17T08:58:10.207Z,41.30
2019-05-17T09:00:36.863Z,40.50
2019-05-17T09:03:03.483Z,40.30
2019-05-17T09:05:30.233Z,40.40
2019-05-17T09:07:59.958Z,39.80
2019-05-17T09:10:26.069Z,39.80
2019-05-17T09:12:52.287Z,38.50
2019-05-17T09:15:20.371Z,39.00
2019-05-17T09:17:46.634Z,39.00
2019-05-17T09:20:12.949Z,39.10
2019-05-17T09:22:39.740Z,39.30
2019-05-17T09:25:07.408Z,39.70
2019-05-17T09:27:33.714Z,39.70
2019-05-17T09:30:00.156Z,39.50
2019-05-17T09:32:26.661Z,39.60
2019-05-17T09:34:52.881Z,39.60
2019-05-17T09:37:22.461Z,39.30
2019-05-17T09:39:49.145Z,37.70
2019-05-17T09:42:15.222Z,38.80
2019-05-17T09:44:41.455Z,39.10
2019-05-17T09:47:10.140Z,38.70
2019-05-17T09:49:35.777Z,38.70
2019-05-17T09:52:02.090Z,38.00
2019-05-17T09:54:41.472Z,38.00
2019-05-17T09:56:56.311Z,38.60
2019-05-17T09:59:22.529Z,36.70
2019-05-17T10:01:49.475Z,36.60
2019-05-17T10:04:15.877Z,36.40
2019-05-17T10:06:42.095Z,36.80
2019-05-17T10:09:09.568Z,36.40
2019-05-17T10:11:36.113Z,36.40
2019-05-17T10:14:02.526Z,36.20
2019-05-17T10:16:30.728Z,36.30
2019-05-17T10:18:56.897Z,37.00
2019-05-17T10:21:25.786Z,37.20
2019-05-17T10:23:51.257Z,36.60
2019-05-17T10:26:19.546Z,36.70
2019-05-17T10:28:45.561Z,37.00
2019-05-17T10:31:12.321Z,36.70
2019-05-17T10:33:40.092Z,36.90
2019-05-17T10:36:06.461Z,36.40
2019-05-17T10:38:33.802Z,36.90
2019-05-17T10:41:00.124Z,36.50
2019-05-17T10:43:26.636Z,36.50
2019-05-17T10:45:52.879Z,36.30
2019-05-17T10:48:21.196Z,36.50
2019-05-17T10:50:49.505Z,37.00
2019-05-17T10:53:15.101Z,37.40
2019-05-17T10:55:41.314Z,37.60
2019-05-17T10:58:10.085Z,35.90
2019-05-17T11:00:36.782Z,36.50
2019-05-17T11:03:03.392Z,37.80
2019-05-17T11:05:30.842Z,36.30
2019-05-17T11:07:59.747Z,35.30
2019-05-17T11:10:26.029Z,35.90
2019-05-17T11:12:52.241Z,35.70
2019-05-17T11:15:18.927Z,35.90
2019-05-17T11:17:45.141Z,35.80
2019-05-17T11:20:25.051Z,35.30
2019-05-17T11:22:51.284Z,35.20
2019-05-17T11:25:17.620Z,35.80
2019-05-17T11:27:43.952Z,36.30
2019-05-17T11:30:10.357Z,36.00
2019-05-17T11:32:36.575Z,35.90
2019-05-17T11:35:04.113Z,35.20
2019-05-17T11:37:30.453Z,34.80
2019-05-17T11:39:56.665Z,35.80
2019-05-17T11:42:23.017Z,35.70
2019-05-17T11:44:49.329Z,36.00
2019-05-17T11:47:15.541Z,35.80
2019-05-17T11:49:41.781Z,35.50
2019-05-17T11:52:08.005Z,35.50
2019-05-17T11:54:34.318Z,36.00
2019-05-17T11:57:00.553Z,34.40
2019-05-17T11:59:26.761Z,34.20
2019-05-17T12:01:53.083Z,34.20
2019-05-17T12:04:19.413Z,33.80
2019-05-17T12:06:46.827Z,33.80
2019-05-17T12:09:13.125Z,33.40
2019-05-17T12:11:39.425Z,32.80
2019-05-17T12:14:05.635Z,32.90
2019-05-17T12:16:31.841Z,32.90
2019-05-17T12:18:58.073Z,33.40
2019-05-17T12:21:24.305Z,33.20
2019-05-17T12:23:50.637Z,33.40
2019-05-17T12:26:16.961Z,32.60
2019-05-17T12:28:43.178Z,32.90
2019-05-17T12:31:09.393Z,32.80
2019-05-17T12:33:35.626Z,32.30
2019-05-17T12:36:02.949Z,32.20
2019-05-17T12:38:29.307Z,32.20
2019-05-17T12:40:55.692Z,31.80
2019-05-17T12:43:22.029Z,31.80
2019-05-17T12:46:00.224Z,32.10
2019-05-17T12:48:16.250Z,32.90
2019-05-17T12:50:42.474Z,32.20
2019-05-17T12:53:08.696Z,32.30
2019-05-17T12:55:35.025Z,32.30
2019-05-17T12:58:01.257Z,32.00
2019-05-17T13:00:27.567Z,32.30
2019-05-17T13:02:53.813Z,32.50
2019-05-17T13:05:20.039Z,32.90
2019-05-17T13:07:46.377Z,32.30
2019-05-17T13:10:12.702Z,33.00
2019-05-17T13:12:38.925Z,32.00
2019-05-17T13:15:06.607Z,32.30
2019-05-17T13:17:32.952Z,32.30
2019-05-17T13:19:59.173Z,31.30
2019-05-17T13:22:25.394Z,31.20
2019-05-17T13:24:51.690Z,31.90
2019-05-17T13:27:18.000Z,31.50
2019-05-17T13:29:44.216Z,30.70
2019-05-17T13:32:10.449Z,30.80
2019-05-17T13:34:36.673Z,31.30
2019-05-17T13:37:02.897Z,31.50
2019-05-17T13:39:29.149Z,30.90
2019-05-17T13:41:55.378Z,31.20
2019-05-17T13:44:21.766Z,31.10
2019-05-17T13:46:48.101Z,31.20
2019-05-17T13:49:14.317Z,31.60
2019-05-17T13:51:40.539Z,30.80
2019-05-17T13:54:06.804Z,31.30
2019-05-17T13:56:33.085Z,31.20
2019-05-17T13:58:59.678Z,30.80
2019-05-17T14:01:26.006Z,31.70
2019-05-17T14:03:52.246Z,31.60
2019-05-17T14:06:18.538Z,31.40
2019-05-17T14:08:44.864Z,31.90
2019-05-17T14:11:11.177Z,31.50
2019-05-17T14:13:37.598Z,31.40
2019-05-17T14:16:04.025Z,31.40
2019-05-17T14:18:30.324Z,32.10
2019-05-17T14:20:56.648Z,31.80
2019-05-17T14:23:22.972Z,31.60
2019-05-17T14:25:49.184Z,31.40
2019-05-17T14:28:15.521Z,31.60
2019-05-17T14:30:41.837Z,31.40
2019-05-17T14:33:08.065Z,31.30
2019-05-17T14:35:35.382Z,31.50
2019-05-17T14:38:01.625Z,31.10
2019-05-17T14:41:00.516Z,31.70
2019-05-17T14:42:55.845Z,32.70
2019-05-17T14:45:22.169Z,31.70
2019-05-17T14:47:48.432Z,31.70
2019-05-17T14:50:15.206Z,32.00
2019-05-17T14:52:41.542Z,32.10
2019-05-17T14:55:08.115Z,31.80
2019-05-17T14:57:34.341Z,32.40
2019-05-17T15:00:00.591Z,32.10
2019-05-17T15:02:26.929Z,31.90
2019-05-17T15:04:53.261Z,32.40
2019-05-17T15:07:19.600Z,32.40
2019-05-17T15:09:45.926Z,32.20
2019-05-17T15:12:25.837Z,31.70
2019-05-17T15:14:40.197Z,31.80
2019-05-17T15:17:06.604Z,32.50
2019-05-17T15:19:32.934Z,32.90
2019-05-17T15:21:59.297Z,32.70
2019-05-17T15:24:25.516Z,32.20
2019-05-17T15:27:04.617Z,32.20
2019-05-17T15:29:19.753Z,32.90
2019-05-17T15:31:45.977Z,32.30
2019-05-17T15:34:12.294Z,32.20
2019-05-17T15:36:38.518Z,31.30
2019-05-17T15:39:05.237Z,32.00
2019-05-17T15:41:31.653Z,31.80
2019-05-17T15:43:57.885Z,31.50
2019-05-17T15:46:24.185Z,31.50
2019-05-17T15:48:50.596Z,31.30
2019-05-17T15:51:16.817Z,30.90
2019-05-17T15:53:43.041Z,30.50
2019-05-17T15:56:09.368Z,30.10
2019-05-17T15:58:35.596Z,30.30
2019-05-17T16:01:01.896Z,30.10
2019-05-17T16:03:28.305Z,30.50
2019-05-17T16:05:54.526Z,31.00
2019-05-17T16:08:20.758Z,31.50
2019-05-17T16:10:46.988Z,32.00
2019-05-17T16:13:13.321Z,31.40
2019-05-17T16:15:39.665Z,31.80
2019-05-17T16:18:05.897Z,32.00
2019-05-17T16:20:32.143Z,32.10
2019-05-17T16:22:58.468Z,31.70
2019-05-17T16:25:24.693Z,31.70
2019-05-17T16:27:51.156Z,31.90
2019-05-17T16:30:17.561Z,32.20
2019-05-17T16:32:43.792Z,32.10
2019-05-17T16:35:10.321Z,32.40
2019-05-17T16:37:36.545Z,32.20
2019-05-17T16:40:06.192Z,32.80
2019-05-17T16:42:32.531Z,32.20
2019-05-17T16:44:58.742Z,32.40
2019-05-17T16:47:25.057Z,32.90
2019-05-17T16:49:51.408Z,32.50
2019-05-17T16:52:17.731Z,32.30
2019-05-17T16:54:43.949Z,31.90
2019-05-17T16:57:10.285Z,32.10
2019-05-17T16:59:36.493Z,32.20
2019-05-17T17:02:03.019Z,32.40
2019-05-17T17:04:29.345Z,32.70
2019-05-17T17:06:55.587Z,32.40
2019-05-17T17:09:21.888Z,32.50
2019-05-17T17:11:48.136Z,32.50
2019-05-17T17:14:14.451Z,33.00
2019-05-17T17:16:40.946Z,33.60
2019-05-17T17:19:07.198Z,33.20
2019-05-17T17:21:33.609Z,32.40
2019-05-17T17:23:59.925Z,32.70
2019-05-17T17:26:26.173Z,32.60
2019-05-17T17:28:52.406Z,32.70
2019-05-17T17:31:18.823Z,33.10
2019-05-17T17:33:45.075Z,33.20
2019-05-17T17:36:11.413Z,33.00
2019-05-17T17:38:37.714Z,33.60
2019-05-17T17:41:04.032Z,33.60
2019-05-17T17:43:31.365Z,33.10
2019-05-17T17:45:58.779Z,33.10
2019-05-17T17:48:25.149Z,33.20
2019-05-17T17:50:51.471Z,33.40
2019-05-17T17:53:17.793Z,33.50
2019-05-17T17:55:44.029Z,33.80
2019-05-17T17:58:10.258Z,34.20
2019-05-17T18:00:36.670Z,34.30
2019-05-17T18:03:03.110Z,34.60
2019-05-17T18:05:29.429Z,34.80
2019-05-17T18:07:55.897Z,35.00
2019-05-17T18:10:28.154Z,34.40
2019-05-17T18:12:54.494Z,34.90
2019-05-17T18:15:24.597Z,35.10
2019-05-17T18:17:50.841Z,35.30
2019-05-17T18:20:17.061Z,35.50
2019-05-17T18:22:43.280Z,35.60
2019-05-17T18:25:09.617Z,35.50
2019-05-17T18:27:35.929Z,35.60
2019-05-17T18:30:04.357Z,35.50
2019-05-17T18:32:31.681Z,35.60
2019-05-17T18:34:57.906Z,36.60
2019-05-17T18:37:24.129Z,36.00
2019-05-17T18:39:50.477Z,36.00
2019-05-17T18:42:16.889Z,36.20
2019-05-17T18:44:43.116Z,36.20
2019-05-17T18:47:09.451Z,36.20
2019-05-17T18:49:35.676Z,35.70
2019-05-17T18:52:01.996Z,36.10
2019-05-17T18:54:28.341Z,36.00
2019-05-17T18:56:54.558Z,36.30
2019-05-17T18:59:20.781Z,36.70
2019-05-17T19:01:47.086Z,37.20
2019-05-17T19:04:13.311Z,37.40
2019-05-17T19:06:39.623Z,37.60
2019-05-17T19:09:06.560Z,36.90
2019-05-17T19:11:32.881Z,37.00
2019-05-17T19:13:59.092Z,37.50
2019-05-17T19:16:25.336Z,37.30
2019-05-17T19:18:51.629Z,37.50
2019-05-17T19:21:17.929Z,37.60
2019-05-17T19:23:44.174Z,37.30
2019-05-17T19:26:10.394Z,37.80
2019-05-17T19:28:36.713Z,37.10
2019-05-17T19:31:03.285Z,37.50
2019-05-17T19:33:29.517Z,37.60
2019-05-17T19:35:55.738Z,38.00
2019-05-17T19:38:21.977Z,37.70
2019-05-17T19:40:48.289Z,37.70
2019-05-17T19:43:14.609Z,38.40
2019-05-17T19:45:41.261Z,38.30
2019-05-17T19:48:07.501Z,38.50
2019-05-17T19:50:33.806Z,38.90
2019-05-17T19:53:00.053Z,39.40
2019-05-17T19:55:26.356Z,39.00
2019-05-17T19:57:52.585Z,39.70
2019-05-17T20:00:21.026Z,38.60
2019-05-17T20:02:47.505Z,39.80
2019-05-17T20:05:13.922Z,39.40
2019-05-17T20:07:43.132Z,40.50
2019-05-17T20:10:11.549Z,41.80
2019-05-17T20:12:37.765Z,41.50
2019-05-17T20:15:16.849Z,40.70
2019-05-17T20:17:33.905Z,40.80
2019-05-17T20:20:00.121Z,41.80
2019-05-17T20:22:26.354Z,42.10
2019-05-17T20:24:52.577Z,41.70
2019-05-17T20:27:18.797Z,42.60
2019-05-17T20:29:45.041Z,42.10
2019-05-17T20:32:11.363Z,42.80
2019-05-17T20:34:37.681Z,42.50
2019-05-17T20:37:05.012Z,42.90
2019-05-17T20:39:31.229Z,42.80
2019-05-17T20:41:57.627Z,42.50
2019-05-17T20:44:24.001Z,43.80
2019-05-17T20:46:50.217Z,43.80
2019-05-17T20:49:16.441Z,44.90
2019-05-17T20:51:42.677Z,45.50
2019-05-17T20:54:08.901Z,45.40
2019-05-17T20:56:35.328Z,45.20
2019-05-17T20:59:01.669Z,45.50
2019-05-17T21:01:27.889Z,45.10
2019-05-17T21:03:54.176Z,44.10
2019-05-17T21:06:20.714Z,44.00
2019-05-17T21:08:46.945Z,44.50
2019-05-17T21:11:13.257Z,44.10
2019-05-17T21:13:39.506Z,43.50
2019-05-17T21:16:05.833Z,43.90
2019-05-17T21:18:32.165Z,45.70
2019-05-17T21:20:58.501Z,47.20
2019-05-17T21:23:24.756Z,47.30
2019-05-17T21:25:51.056Z,46.40
2019-05-17T21:28:17.309Z,46.20
2019-05-17T21:30:43.521Z,47.10
2019-05-17T21:33:09.741Z,46.70
2019-05-17T21:35:35.976Z,46.50
2019-05-17T21:38:02.403Z,46.60
2019-05-17T21:40:48.610Z,45.90
2019-05-17T21:43:14.937Z,46.10
2019-05-17T21:45:41.205Z,46.30
2019-05-17T21:48:07.448Z,45.30
2019-05-17T21:50:33.665Z,45.00
2019-05-17T21:52:59.885Z,44.90
2019-05-17T21:55:26.129Z,46.20
2019-05-17T21:57:52.344Z,44.90
2019-05-17T22:00:50.146Z,43.80
2019-05-17T22:03:16.557Z,43.90
2019-05-17T22:05:42.837Z,43.30
2019-05-17T22:08:09.157Z,43.30
2019-05-17T22:10:35.368Z,42.50
2019-05-17T22:13:01.597Z,42.20
2019-05-17T22:15:27.925Z,42.40
2019-05-17T22:17:54.133Z,42.90
2019-05-17T22:20:20.354Z,42.90
2019-05-17T22:22:46.581Z,42.60
2019-05-17T22:25:12.800Z,42.50
2019-05-17T22:27:39.130Z,42.40
2019-05-17T22:30:05.759Z,42.30
2019-05-17T22:32:31.965Z,42.50
2019-05-17T22:34:58.189Z,43.00
2019-05-17T22:37:24.617Z,41.80
2019-05-17T22:39:50.835Z,42.20
2019-05-17T22:42:17.055Z,41.00
2019-05-17T22:44:43.391Z,40.80
2019-05-17T22:47:10.024Z,41.00
2019-05-17T22:49:36.246Z,41.10
2019-05-17T22:52:02.576Z,41.50
2019-05-17T22:54:28.795Z,41.40
2019-05-17T22:56:55.125Z,41.40
2019-05-17T22:59:21.386Z,40.70
2019-05-17T23:01:47.609Z,40.70
2019-05-17T23:04:13.829Z,40.40
2019-05-17T23:06:40.073Z,41.00
2019-05-17T23:09:06.553Z,40.70
2019-05-17T23:11:32.769Z,40.20
2019-05-17T23:13:59.101Z,41.90
2019-05-17T23:16:25.323Z,41.60
2019-05-17T23:18:53.540Z,43.10
2019-05-17T23:21:19.781Z,43.30
2019-05-17T23:23:46.009Z,43.10
2019-05-17T23:26:12.228Z,42.80
2019-05-17T23:28:38.469Z,42.80
2019-05-17T23:31:04.768Z,43.20
2019-05-17T23:33:30.985Z,43.00
2019-05-17T23:35:57.213Z,42.90
2019-05-17T23:38:23.437Z,43.20
2019-05-17T23:40:49.725Z,43.10
2019-05-17T23:43:16.049Z,43.40
2019-05-17T23:45:42.280Z,43.30
2019-05-17T23:48:08.619Z,43.30
2019-05-17T23:50:34.946Z,44.80
2019-05-17T23:53:01.249Z,44.90
2019-05-17T23:55:27.469Z,46.00
2019-05-17T23:57:53.689Z,47.80
